createdAt,value
2017-08-18T14:44:15.863Z,39744
2017-08-18T14:45:18.634Z,36768
2017-08-18T14:46:21.324Z,41088
2017-08-18T14:47:23.976Z,40800
2017-08-18T14:48:26.693Z,30752
2017-08-18T14:49:30.402Z,30784
2017-08-18T14:50:33.387Z,25280
2017-08-18T14:51:36.133Z,27744
2017-08-18T14:52:38.592Z,37536
2017-08-18T14:53:41.868Z,30784
2017-08-18T14:54:44.277Z,28192
2017-08-18T14:55:46.578Z,23168
2017-08-18T14:56:48.897Z,30880
2017-08-18T14:57:51.929Z,24160
2017-08-18T14:58:54.277Z,24224
2017-08-18T14:59:57.041Z,29024
2017-08-18T15:00:59.269Z,29312
2017-08-18T15:02:01.606Z,32224
2017-08-18T15:03:05.055Z,25888
2017-08-18T15:04:07.896Z,31488
2017-08-18T15:05:10.349Z,38016
2017-08-18T15:06:12.739Z,32448
2017-08-18T15:07:15.081Z,39168
2017-08-18T15:08:18.873Z,38528
2017-08-18T15:09:21.576Z,56960
2017-08-18T15:10:24.401Z,36256
2017-08-18T15:11:26.653Z,33760
2017-08-18T15:12:29.020Z,32800
2017-08-18T15:13:34.506Z,33792
2017-08-18T15:14:37.221Z,38528
2017-08-18T15:15:39.610Z,58592
2017-08-18T15:16:41.962Z,52864
2017-08-18T15:17:44.241Z,53120
2017-08-18T15:18:47.793Z,45792
2017-08-18T15:19:50.812Z,52736
2017-08-18T15:20:53.425Z,55296
2017-08-18T15:21:56.677Z,55552
2017-08-18T15:22:58.711Z,33600
2017-08-18T15:24:01.751Z,38048
2017-08-18T15:25:04.260Z,61984
2017-08-18T15:26:06.740Z,46176
2017-08-18T15:27:09.220Z,45056
2017-08-18T15:28:11.949Z,48320
2017-08-18T15:29:15.663Z,35616
2017-08-18T15:30:18.000Z,47552
2017-08-18T15:31:20.365Z,47264
2017-08-18T15:32:22.823Z,50240
2017-08-18T15:33:25.034Z,45856
2017-08-18T15:34:27.906Z,51552
2017-08-18T15:35:30.548Z,34112
2017-08-18T15:36:32.761Z,46912
2017-08-18T15:37:35.425Z,42944
2017-08-18T15:38:38.159Z,50016
2017-08-18T15:39:40.430Z,45472
2017-08-18T15:40:43.626Z,42016
2017-08-18T15:41:46.317Z,42944
2017-08-18T15:42:48.647Z,42592
2017-08-18T15:43:52.255Z,49856
2017-08-18T15:44:55.301Z,57696
2017-08-18T15:45:58.125Z,54336
2017-08-18T15:47:01.840Z,42592
2017-08-18T15:48:04.625Z,44704
2017-08-18T15:49:07.266Z,55776
2017-08-18T15:50:09.834Z,67616
2017-08-18T15:51:12.218Z,51456
2017-08-18T15:52:15.221Z,56256
2017-08-18T15:53:18.146Z,53632
2017-08-18T15:54:20.684Z,54080
2017-08-18T15:55:23.030Z,64800
2017-08-18T15:56:26.006Z,65024
2017-08-18T15:57:29.663Z,53024
2017-08-18T15:58:31.976Z,50464
2017-08-18T15:59:35.009Z,50336
2017-08-18T16:00:37.441Z,44704
2017-08-18T16:01:40.228Z,46944
2017-08-18T16:02:43.144Z,51904
2017-08-18T16:03:45.457Z,49184
2017-08-18T16:04:48.542Z,29952
2017-08-18T16:05:50.872Z,50144
2017-08-18T16:06:53.268Z,39328
2017-08-18T16:07:56.157Z,38176
2017-08-18T16:08:58.694Z,53920
2017-08-18T16:10:01.013Z,71552
2017-08-18T16:11:03.401Z,66656
2017-08-18T16:12:05.706Z,36576
2017-08-18T16:13:08.697Z,65920
2017-08-18T16:14:10.933Z,85344
2017-08-18T16:15:13.496Z,26752
2017-08-18T16:16:15.790Z,77088
2017-08-18T16:17:18.131Z,36288
2017-08-18T16:18:21.251Z,44320
2017-08-18T16:19:23.620Z,42848
2017-08-18T16:20:25.924Z,60288
2017-08-18T16:21:28.291Z,57952
2017-08-18T16:22:30.603Z,57120
2017-08-18T16:23:33.605Z,99744
2017-08-18T16:24:36.058Z,64160
2017-08-18T16:25:38.150Z,38816
2017-08-18T16:26:40.774Z,84352
2017-08-18T16:27:43.255Z,45536
2017-08-18T16:28:46.503Z,52352
2017-08-18T16:29:49.155Z,36864
2017-08-18T16:30:51.368Z,48544
2017-08-18T16:31:53.735Z,64032
2017-08-18T16:32:56.016Z,67648
2017-08-18T16:33:59.038Z,47904
2017-08-18T16:35:01.412Z,95328
2017-08-18T16:36:03.669Z,75808
2017-08-18T16:37:06.065Z,64416
2017-08-18T16:38:08.382Z,48672
2017-08-18T16:39:11.863Z,136928
2017-08-18T16:40:14.203Z,36384
2017-08-18T16:41:16.654Z,26304
2017-08-18T16:42:19.015Z,39168
2017-08-18T16:43:21.275Z,54240
2017-08-18T16:44:24.544Z,32832
2017-08-18T16:45:27.093Z,32512
2017-08-18T16:46:29.361Z,45952
2017-08-18T16:47:31.706Z,49248
2017-08-18T16:48:33.997Z,122560
2017-08-18T16:49:37.069Z,105824
2017-08-18T16:50:39.588Z,60928
2017-08-18T16:51:42.022Z,57152
2017-08-18T16:52:44.430Z,56416
2017-08-18T16:53:46.755Z,43456
2017-08-18T16:54:51.569Z,49216
2017-08-18T16:55:53.956Z,51040
2017-08-18T16:56:56.367Z,53920
2017-08-18T16:57:58.935Z,122432
2017-08-18T16:59:01.087Z,91232
2017-08-18T17:00:04.108Z,106656
2017-08-18T17:01:06.488Z,97728
2017-08-18T17:02:08.963Z,85984
2017-08-18T17:03:11.561Z,143968
2017-08-18T17:04:13.778Z,84704
2017-08-18T17:05:16.861Z,49440
2017-08-18T17:06:19.195Z,35072
2017-08-18T17:07:21.433Z,83968
2017-08-18T17:08:24.085Z,46336
2017-08-18T17:09:26.273Z,46464
2017-08-18T17:10:29.509Z,66368
2017-08-18T17:11:31.811Z,41920
2017-08-18T17:12:34.397Z,44416
2017-08-18T17:13:36.930Z,43456
2017-08-18T17:14:39.771Z,50496
2017-08-18T17:15:42.725Z,48576
2017-08-18T17:16:44.958Z,47072
2017-08-18T17:17:47.391Z,50688
2017-08-18T17:18:49.977Z,47520
2017-08-18T17:19:52.204Z,47392
2017-08-18T17:20:55.147Z,50912
2017-08-18T17:21:57.448Z,74912
2017-08-18T17:22:59.822Z,56800
2017-08-18T17:24:02.127Z,38496
2017-08-18T17:25:04.401Z,32640
2017-08-18T17:26:07.411Z,32096
2017-08-18T17:27:09.728Z,36000
2017-08-18T17:28:12.117Z,28864
2017-08-18T17:29:14.324Z,30432
2017-08-18T17:30:16.622Z,25472
2017-08-18T17:31:19.625Z,39424
2017-08-18T17:32:22.237Z,36832
2017-08-18T17:33:24.994Z,53600
2017-08-18T17:34:27.372Z,55648
2017-08-18T17:35:29.695Z,41600
2017-08-18T17:36:32.713Z,35584
2017-08-18T17:37:35.003Z,32000
2017-08-18T17:38:37.402Z,54048
2017-08-18T17:39:39.644Z,65824
2017-08-18T17:40:41.982Z,65920
2017-08-18T17:41:45.002Z,66944
2017-08-18T17:42:48.085Z,56512
2017-08-18T17:43:49.921Z,70720
2017-08-18T17:44:52.233Z,86336
2017-08-18T17:45:54.553Z,73120
2017-08-18T17:46:57.419Z,93408
2017-08-18T17:47:59.977Z,94208
2017-08-18T17:49:02.301Z,48032
2017-08-18T17:50:04.544Z,73376
2017-08-18T17:51:06.968Z,47712
2017-08-18T17:52:09.924Z,72768
2017-08-18T17:53:12.248Z,48576
2017-08-18T17:54:14.578Z,47840
2017-08-18T17:55:16.866Z,38688
2017-08-18T17:56:19.279Z,54592
2017-08-18T17:57:22.497Z,51712
2017-08-18T17:58:25.032Z,45312
2017-08-18T17:59:27.326Z,29696
2017-08-18T18:00:29.835Z,51872
2017-08-18T18:01:32.218Z,62208
2017-08-18T18:02:35.539Z,140832
2017-08-18T18:03:37.901Z,58016
2017-08-18T18:04:40.319Z,31488
2017-08-18T18:05:42.676Z,51808
2017-08-18T18:06:44.959Z,62368
2017-08-18T18:07:47.898Z,56864
2017-08-18T18:08:50.318Z,39488
2017-08-18T18:09:52.687Z,32064
2017-08-18T18:10:54.997Z,129696
2017-08-18T18:11:57.333Z,127488
2017-08-18T18:13:00.307Z,80576
2017-08-18T18:14:02.637Z,73376
2017-08-18T18:15:04.969Z,71680
2017-08-18T18:16:07.301Z,86432
2017-08-18T18:17:09.641Z,43392
2017-08-18T18:18:12.518Z,30400
2017-08-18T18:19:14.852Z,63392
2017-08-18T18:20:17.173Z,68224
2017-08-18T18:21:19.503Z,89952
2017-08-18T18:22:21.864Z,78144
2017-08-18T18:23:24.845Z,51584
2017-08-18T18:24:27.176Z,45280
2017-08-18T18:25:29.495Z,101760
2017-08-18T18:26:31.835Z,47840
2017-08-18T18:27:34.160Z,44032
2017-08-18T18:28:37.145Z,87616
2017-08-18T18:29:39.459Z,54816
2017-08-18T18:30:41.807Z,45344
2017-08-18T18:31:44.120Z,98144
2017-08-18T18:32:46.695Z,84352
2017-08-18T18:33:50.099Z,77984
2017-08-18T18:34:52.517Z,76448
2017-08-18T18:35:54.858Z,99936
2017-08-18T18:36:57.173Z,76128
2017-08-18T18:37:59.493Z,84320
2017-08-18T18:39:02.556Z,113216
2017-08-18T18:40:04.852Z,97696
2017-08-18T18:41:07.191Z,117504
2017-08-18T18:42:09.535Z,102496
2017-08-18T18:43:11.870Z,72800
2017-08-18T18:44:14.692Z,120096
2017-08-18T18:45:17.136Z,65152
2017-08-18T18:46:19.636Z,69600
2017-08-18T18:47:21.923Z,108544
2017-08-18T18:48:24.310Z,67264
2017-08-18T18:49:27.276Z,42432
2017-08-18T18:50:29.614Z,117056
2017-08-18T18:51:31.948Z,123168
2017-08-18T18:52:34.298Z,90880
2017-08-18T18:53:36.618Z,76384
2017-08-18T18:54:39.673Z,45216
2017-08-18T18:55:42.003Z,98336
2017-08-18T18:56:44.337Z,108704
2017-08-18T18:57:46.685Z,131264
2017-08-18T18:58:49.000Z,123712
2017-08-18T18:59:52.114Z,40512
2017-08-18T19:00:54.435Z,38464
2017-08-18T19:01:56.738Z,28800
2017-08-18T19:02:59.169Z,25824
2017-08-18T19:04:01.604Z,28480
2017-08-18T19:05:04.631Z,30656
2017-08-18T19:06:06.972Z,32256
2017-08-18T19:07:09.288Z,31936
2017-08-18T19:08:11.584Z,43328
2017-08-18T19:09:13.885Z,66752
2017-08-18T19:10:16.873Z,55200
2017-08-18T19:11:19.199Z,41184
2017-08-18T19:12:21.436Z,39104
2017-08-18T19:13:23.870Z,37408
2017-08-18T19:14:26.171Z,48512
2017-08-18T19:15:29.102Z,47744
2017-08-18T19:16:31.431Z,48288
2017-08-18T19:17:33.775Z,47520
2017-08-18T19:18:36.104Z,43520
2017-08-18T19:19:38.423Z,39264
2017-08-18T19:20:41.336Z,39872
2017-08-18T19:21:43.672Z,38400
2017-08-18T19:22:46.025Z,50880
2017-08-18T19:23:48.365Z,53280
2017-08-18T19:24:50.702Z,49888
2017-08-18T19:25:53.604Z,52288
2017-08-18T19:26:55.967Z,51264
2017-08-18T19:27:58.294Z,49920
2017-08-18T19:29:00.626Z,65728
2017-08-18T19:30:02.991Z,77024
2017-08-18T19:31:05.986Z,60768
2017-08-18T19:32:08.321Z,60736
2017-08-18T19:33:10.716Z,41312
2017-08-18T19:34:13.030Z,110464
2017-08-18T19:35:15.414Z,97632
2017-08-18T19:36:18.355Z,67264
2017-08-18T19:37:20.741Z,144544
2017-08-18T19:38:23.097Z,72576
2017-08-18T19:39:25.468Z,112928
2017-08-18T19:40:27.993Z,78240
2017-08-18T19:41:31.000Z,54976
2017-08-18T19:42:33.337Z,66720
2017-08-18T19:43:35.671Z,42496
2017-08-18T19:44:38.006Z,46080
2017-08-18T19:45:40.344Z,43168
2017-08-18T19:46:43.377Z,34368
2017-08-18T19:47:45.712Z,56480
2017-08-18T19:48:48.054Z,57952
2017-08-18T19:49:50.596Z,47488
2017-08-18T19:50:52.949Z,44704
2017-08-18T19:51:56.005Z,94976
2017-08-18T19:52:58.511Z,51296
2017-08-18T19:54:00.853Z,45664
2017-08-18T19:55:03.212Z,55648
2017-08-18T19:56:05.572Z,52928
2017-08-18T19:57:08.623Z,49248
2017-08-18T19:58:11.010Z,34976
2017-08-18T19:59:13.346Z,46016
2017-08-18T20:00:15.705Z,35232
2017-08-18T20:01:18.066Z,37824
2017-08-18T20:02:21.127Z,34912
2017-08-18T20:03:23.505Z,76896
2017-08-18T20:04:25.860Z,98016
2017-08-18T20:05:28.238Z,38272
2017-08-18T20:06:30.587Z,26464
2017-08-18T20:07:33.529Z,30368
2017-08-18T20:08:35.874Z,33152
2017-08-18T20:09:38.227Z,79392
2017-08-18T20:10:40.550Z,56928
2017-08-18T20:11:42.918Z,45824
2017-08-18T20:12:45.879Z,50208
2017-08-18T20:13:48.239Z,55328
2017-08-18T20:14:50.615Z,61152
2017-08-18T20:15:52.976Z,55296
2017-08-18T20:16:55.207Z,60032
2017-08-18T20:17:58.373Z,54272
2017-08-18T20:19:00.748Z,41856
2017-08-18T20:20:03.090Z,41760
2017-08-18T20:21:05.453Z,28416
2017-08-18T20:22:07.808Z,43552
2017-08-18T20:23:10.848Z,44000
2017-08-18T20:24:13.189Z,104672
2017-08-18T20:25:15.539Z,100096
2017-08-18T20:26:17.871Z,94464
2017-08-18T20:27:20.245Z,83040
2017-08-18T20:28:23.143Z,61600
2017-08-18T20:29:25.495Z,32032
2017-08-18T20:30:27.875Z,54144
2017-08-18T20:31:30.242Z,62176
2017-08-18T20:32:32.569Z,31904
2017-08-18T20:33:35.441Z,66080
2017-08-18T20:34:37.808Z,145024
2017-08-18T20:35:40.156Z,127072
2017-08-18T20:36:42.506Z,72256
2017-08-18T20:37:44.865Z,38976
2017-08-18T20:38:47.749Z,33248
2017-08-18T20:39:50.094Z,36480
2017-08-18T20:40:52.464Z,38272
2017-08-18T20:41:54.795Z,67264
2017-08-18T20:42:57.176Z,93888
2017-08-18T20:44:00.211Z,67456
2017-08-18T20:45:02.584Z,36384
2017-08-18T20:46:04.944Z,34848
2017-08-18T20:47:07.266Z,46912
2017-08-18T20:48:09.614Z,30112
2017-08-18T20:49:12.719Z,25312
2017-08-18T20:50:16.320Z,35360
2017-08-18T20:51:18.621Z,26080
2017-08-18T20:52:20.981Z,25792
2017-08-18T20:53:23.434Z,25280
2017-08-18T20:54:26.421Z,47648
2017-08-18T20:55:28.756Z,50560
2017-08-18T20:56:31.066Z,26592
2017-08-18T20:57:33.477Z,25760
2017-08-18T20:58:35.794Z,28960
2017-08-18T20:59:38.904Z,30592
2017-08-18T21:00:41.276Z,21376
2017-08-18T21:01:43.619Z,29760
2017-08-18T21:02:45.919Z,22944
2017-08-18T21:03:48.267Z,25888
2017-08-18T21:04:51.204Z,28608
2017-08-18T21:05:53.545Z,25952
2017-08-18T21:06:55.962Z,26080
2017-08-18T21:07:58.314Z,23744
2017-08-18T21:09:00.670Z,23904
2017-08-18T21:10:03.662Z,27264
2017-08-18T21:11:06.144Z,35584
2017-08-18T21:12:08.521Z,39264
2017-08-18T21:13:10.772Z,37472
2017-08-18T21:14:13.210Z,35968
2017-08-18T21:15:16.209Z,37120
2017-08-18T21:16:18.539Z,35808
2017-08-18T22:02:21.224Z,19648
2017-08-18T22:03:23.544Z,18624
2017-08-18T22:04:25.857Z,18496
2017-08-18T22:05:28.188Z,18272
2017-08-18T22:06:30.521Z,19392
2017-08-18T22:07:33.953Z,18112
2017-08-18T22:08:36.298Z,17008
2017-08-18T22:09:38.804Z,17700
2017-08-18T22:10:41.119Z,19456
2017-08-18T22:11:43.447Z,19616
2017-08-18T22:12:46.431Z,15756
2017-08-18T22:13:48.756Z,13764
2017-08-18T22:14:51.082Z,15528
2017-08-18T22:15:53.957Z,14232
2017-08-18T22:16:56.223Z,16548
2017-08-18T22:18:00.051Z,17636
2017-08-18T22:19:02.372Z,21600
2017-08-18T22:20:04.621Z,19424
2017-08-18T22:21:06.943Z,16840
2017-08-18T22:22:09.349Z,16832
2017-08-18T22:23:12.696Z,18720
2017-08-18T22:24:14.990Z,15340
2017-08-18T22:25:17.501Z,16176
2017-08-18T22:26:19.791Z,15008
2017-08-18T22:27:22.063Z,23904
2017-08-18T22:28:25.022Z,16396
2017-08-18T22:29:27.363Z,17588
2017-08-18T22:30:30.386Z,14352
2017-08-18T22:31:33.089Z,18848
2017-08-18T22:32:35.640Z,15744
2017-08-18T22:33:38.420Z,16388
2017-08-18T22:34:40.781Z,11596
2017-08-18T22:35:43.121Z,8996
2017-08-18T22:36:45.359Z,8648
2017-08-18T22:37:47.755Z,7548
2017-08-18T22:38:50.716Z,6608
2017-08-18T22:39:53.037Z,6480
2017-08-18T22:40:55.324Z,7240
2017-08-18T22:41:57.756Z,13012
2017-08-18T22:43:00.095Z,16052
2017-08-18T22:44:03.014Z,15128
2017-08-18T22:45:05.363Z,14468
2017-08-18T22:46:07.870Z,14196
2017-08-18T22:47:10.111Z,12256
2017-08-18T22:48:12.246Z,10040
2017-08-18T22:49:15.336Z,10596
2017-08-18T22:50:17.657Z,11140
2017-08-18T22:51:20.193Z,9376
2017-08-18T22:52:22.383Z,7548
2017-08-18T22:53:24.688Z,8040
2017-08-18T22:54:27.893Z,8972
2017-08-18T22:55:30.398Z,8508
2017-08-18T22:56:33.147Z,10356
2017-08-18T22:57:35.623Z,10880
2017-08-18T22:58:38.297Z,10956
2017-08-18T22:59:41.013Z,10932
2017-08-18T23:00:43.351Z,10788
2017-08-18T23:01:45.687Z,10744
2017-08-18T23:02:48.013Z,10280
2017-08-18T23:03:50.347Z,9300
2017-08-18T23:04:53.327Z,9236
2017-08-18T23:05:55.638Z,9216
2017-08-18T23:06:57.961Z,9164
2017-08-18T23:08:00.307Z,9472
2017-08-18T23:09:02.631Z,9532
2017-08-18T23:10:05.611Z,9932
2017-08-18T23:11:07.943Z,8860
2017-08-18T23:12:10.259Z,8124
2017-08-18T23:13:12.594Z,7216
2017-08-18T23:14:14.916Z,7972
2017-08-18T23:15:17.886Z,8576
2017-08-18T23:16:20.200Z,8080
2017-08-18T23:17:22.528Z,7864
2017-08-18T23:18:24.876Z,8472
2017-08-18T23:19:27.205Z,8444
2017-08-18T23:20:30.177Z,7584
2017-08-18T23:21:32.503Z,6368
2017-08-18T23:22:34.832Z,6796
2017-08-18T23:23:37.144Z,6188
2017-08-18T23:24:39.468Z,5148
2017-08-18T23:25:42.352Z,6624
2017-08-18T23:26:44.674Z,4560
2017-08-18T23:27:47.022Z,4196
2017-08-18T23:28:49.363Z,4144
2017-08-18T23:29:51.687Z,6160
2017-08-18T23:30:54.558Z,3716
2017-08-18T23:31:56.886Z,5028
2017-08-18T23:32:59.213Z,4648
2017-08-18T23:34:01.550Z,4092
2017-08-18T23:35:03.876Z,3456
2017-08-18T23:36:06.868Z,3952
2017-08-18T23:37:09.227Z,5216
2017-08-18T23:38:11.546Z,5060
2017-08-18T23:39:13.874Z,2532
2017-08-18T23:40:16.195Z,4316
2017-08-18T23:41:19.168Z,4208
2017-08-18T23:42:21.495Z,2480
2017-08-18T23:43:23.829Z,2792
2017-08-18T23:44:26.148Z,1700
2017-08-18T23:45:28.493Z,1992
2017-08-18T23:46:31.599Z,1500
2017-08-18T23:47:33.951Z,1324
